createdAt,value
2017-10-22T00:00:42.036Z,98200.80
2017-10-22T00:03:11.289Z,98206.27
2017-10-22T00:05:40.581Z,98199.19
2017-10-22T00:08:09.887Z,98204.69
2017-10-22T00:10:39.198Z,98208.27
2017-10-22T00:13:07.558Z,98211.00
2017-10-22T00:15:41.226Z,98211.59
2017-10-22T00:18:09.538Z,98213.24
2017-10-22T00:20:38.835Z,98215.36
2017-10-22T00:23:10.928Z,98209.22
2017-10-22T00:25:40.222Z,98202.91
2017-10-22T00:28:12.911Z,98207.45
2017-10-22T00:30:42.187Z,98211.28
2017-10-22T00:33:10.591Z,98209.20
2017-10-22T00:35:39.888Z,98204.66
2017-10-22T00:38:09.200Z,98211.41
2017-10-22T00:40:43.680Z,98202.34
2017-10-22T00:43:12.092Z,98209.02
2017-10-22T00:45:41.413Z,98203.35
2017-10-22T00:48:10.729Z,98197.88
2017-10-22T00:50:39.328Z,98199.31
2017-10-22T00:53:07.764Z,98206.38
2017-10-22T00:55:37.058Z,98205.05
2017-10-22T00:58:06.375Z,98209.55
2017-10-22T01:00:37.576Z,98203.36
2017-10-22T01:03:05.944Z,98205.86
2017-10-22T01:05:34.264Z,98205.77
2017-10-22T01:08:03.626Z,98204.17
2017-10-22T01:10:32.010Z,98199.43
2017-10-22T01:13:02.465Z,98190.67
2017-10-22T01:15:35.174Z,98188.20
2017-10-22T01:18:04.452Z,98183.32
2017-10-22T01:20:34.013Z,98182.45
2017-10-22T01:23:03.252Z,98177.91
2017-10-22T01:25:31.740Z,98176.28
2017-10-22T01:28:00.150Z,98167.06
2017-10-22T01:30:30.657Z,98168.08
2017-10-22T01:32:59.965Z,98175.12
2017-10-22T01:35:29.284Z,98162.33
2017-10-22T01:37:57.656Z,98168.46
2017-10-22T01:40:27.009Z,98190.41
2017-10-22T01:42:55.313Z,98178.75
2017-10-22T01:45:25.871Z,98176.25
2017-10-22T01:47:55.134Z,98178.08
2017-10-22T01:50:27.228Z,98177.50
2017-10-22T01:52:56.507Z,98173.92
2017-10-22T01:55:25.188Z,98177.21
2017-10-22T01:57:53.590Z,98173.02
2017-10-22T02:00:22.877Z,98165.29
2017-10-22T02:02:51.289Z,98172.82
2017-10-22T02:05:20.586Z,98161.95
2017-10-22T02:07:49.892Z,98170.34
2017-10-22T02:10:19.253Z,98156.89
2017-10-22T02:12:47.601Z,98160.81
2017-10-22T02:15:15.921Z,98172.27
2017-10-22T02:17:44.315Z,98171.13
2017-10-22T02:20:14.568Z,98168.46
2017-10-22T02:22:45.069Z,98153.55
2017-10-22T02:25:14.393Z,98150.78
2017-10-22T02:27:42.742Z,98146.33
2017-10-22T02:30:11.414Z,98144.76
2017-10-22T02:32:45.629Z,98137.11
2017-10-22T02:35:14.040Z,98138.07
2017-10-22T02:37:43.351Z,98143.30
2017-10-22T02:40:12.628Z,98130.83
2017-10-22T02:42:45.034Z,98142.75
2017-10-22T02:45:14.358Z,98136.41
2017-10-22T02:47:42.708Z,98140.34
2017-10-22T02:50:11.986Z,98136.38
2017-10-22T02:52:40.671Z,98148.21
2017-10-22T02:55:09.055Z,98132.95
2017-10-22T02:57:37.431Z,98141.61
2017-10-22T03:00:05.829Z,98137.70
2017-10-22T03:02:35.105Z,98138.56
2017-10-22T03:05:05.366Z,98130.39
2017-10-22T03:07:35.889Z,98123.36
2017-10-22T03:10:05.185Z,98129.25
2017-10-22T03:12:34.479Z,98122.10
2017-10-22T03:15:02.912Z,98132.39
2017-10-22T03:17:31.302Z,98123.67
2017-10-22T03:19:59.712Z,98116.78
2017-10-22T03:22:29.239Z,98112.95
2017-10-22T03:25:00.363Z,98114.05
2017-10-22T03:27:33.619Z,98109.63
2017-10-22T03:30:02.059Z,98114.59
2017-10-22T03:32:31.341Z,98119.14
2017-10-22T03:34:59.748Z,98125.09
2017-10-22T03:37:29.028Z,98124.20
2017-10-22T03:39:59.266Z,98125.42
2017-10-22T03:42:28.546Z,98128.16
2017-10-22T03:44:56.948Z,98132.11
2017-10-22T03:47:26.232Z,98132.14
2017-10-22T03:49:54.896Z,98132.11
2017-10-22T03:52:23.292Z,98117.48
2017-10-22T03:54:51.678Z,98121.26
2017-10-22T03:57:20.094Z,98124.28
2017-10-22T03:59:50.592Z,98123.77
2017-10-22T04:02:18.990Z,98114.45
2017-10-22T04:04:48.315Z,98123.97
2017-10-22T04:07:16.941Z,98115.66
2017-10-22T04:09:47.179Z,98114.76
2017-10-22T04:12:19.335Z,98107.81
2017-10-22T04:14:47.653Z,98102.87
2017-10-22T04:17:16.936Z,98102.92
2017-10-22T04:19:46.238Z,98098.55
2017-10-22T04:22:15.353Z,98105.41
2017-10-22T04:24:44.556Z,98102.67
2017-10-22T04:27:12.917Z,98111.14
2017-10-22T04:29:42.491Z,98107.45
2017-10-22T04:32:10.906Z,98114.16
2017-10-22T04:34:40.194Z,98105.81
2017-10-22T04:37:12.587Z,98104.89
2017-10-22T04:39:41.884Z,98109.46
2017-10-22T04:42:11.204Z,98115.88
2017-10-22T04:44:39.563Z,98112.56
2017-10-22T04:47:09.122Z,98115.70
2017-10-22T04:49:37.552Z,98113.33
2017-10-22T04:52:06.850Z,98113.73
2017-10-22T04:54:36.168Z,98112.69
2017-10-22T04:57:05.447Z,98113.16
2017-10-22T04:59:33.846Z,98108.27
2017-10-22T05:02:03.126Z,98111.16
2017-10-22T05:04:31.796Z,98108.34
2017-10-22T05:07:00.242Z,98117.25
2017-10-22T05:09:29.515Z,98125.27
2017-10-22T05:11:58.820Z,98119.25
2017-10-22T05:14:28.098Z,98113.33
2017-10-22T05:17:01.408Z,98114.92
2017-10-22T05:19:30.717Z,98109.00
2017-10-22T05:22:00.313Z,98104.31
2017-10-22T05:24:29.633Z,98104.06
2017-10-22T05:26:58.034Z,98106.91
2017-10-22T05:29:26.386Z,98103.69
2017-10-22T05:31:55.677Z,98095.89
2017-10-22T05:34:29.071Z,98090.14
2017-10-22T05:36:59.419Z,98077.97
2017-10-22T05:39:28.924Z,98079.13
2017-10-22T05:41:58.878Z,98084.59
2017-10-22T05:44:28.304Z,98082.33
2017-10-22T05:46:58.251Z,98075.73
2017-10-22T05:49:28.091Z,98075.77
2017-10-22T05:51:57.137Z,98085.48
2017-10-22T05:54:27.611Z,98078.69
2017-10-22T05:56:58.207Z,98079.34
2017-10-22T05:59:27.831Z,98088.14
2017-10-22T06:01:57.571Z,98079.07
2017-10-22T06:04:27.128Z,98090.66
2017-10-22T06:06:55.444Z,98091.56
2017-10-22T06:09:23.805Z,98092.70
2017-10-22T06:11:53.120Z,98097.15
2017-10-22T06:14:22.451Z,98095.52
2017-10-22T06:16:50.815Z,98091.08
2017-10-22T06:19:19.454Z,98085.19
2017-10-22T06:21:47.876Z,98103.44
2017-10-22T06:24:16.241Z,98091.77
2017-10-22T06:26:45.567Z,98096.99
2017-10-22T06:29:16.070Z,98097.16
2017-10-22T06:31:45.387Z,98093.03
2017-10-22T06:34:15.525Z,98095.44
2017-10-22T06:36:43.989Z,98098.33
2017-10-22T06:39:13.267Z,98099.97
2017-10-22T06:41:42.619Z,98101.61
2017-10-22T06:44:13.107Z,98107.66
2017-10-22T06:46:42.678Z,98097.11
2017-10-22T06:49:11.137Z,98113.03
2017-10-22T06:51:41.626Z,98109.14
2017-10-22T06:54:10.933Z,98107.27
2017-10-22T06:56:40.272Z,98115.64
2017-10-22T06:59:12.302Z,98126.80
2017-10-22T07:01:41.581Z,98116.58
2017-10-22T07:04:09.976Z,98115.45
2017-10-22T07:06:41.122Z,98117.81
2017-10-22T07:09:10.695Z,98119.00
2017-10-22T07:11:40.038Z,98128.88
2017-10-22T07:14:09.335Z,98127.58
2017-10-22T07:16:38.252Z,98126.09
2017-10-22T07:19:07.656Z,98135.45
2017-10-22T07:21:36.064Z,98137.78
2017-10-22T07:24:04.385Z,98141.63
2017-10-22T07:26:33.961Z,98142.55
2017-10-22T07:29:02.496Z,98133.73
2017-10-22T07:31:31.707Z,98140.03
2017-10-22T07:34:00.171Z,98137.98
2017-10-22T07:36:33.772Z,98144.11
2017-10-22T07:39:03.029Z,98135.28
2017-10-22T07:41:33.492Z,98150.20
2017-10-22T07:44:03.086Z,98146.28
2017-10-22T07:46:31.487Z,98145.50
2017-10-22T07:49:00.783Z,98148.81
2017-10-22T07:51:30.111Z,98146.45
2017-10-22T07:53:58.489Z,98147.95
2017-10-22T07:56:26.889Z,98141.75
2017-10-22T07:58:55.222Z,98145.34
2017-10-22T08:01:24.830Z,98145.22
2017-10-22T08:03:53.221Z,98143.84
2017-10-22T08:06:22.542Z,98143.64
2017-10-22T08:08:50.918Z,98150.14
2017-10-22T08:11:21.445Z,98152.28
2017-10-22T08:13:50.806Z,98148.73
2017-10-22T08:16:20.354Z,98151.42
2017-10-22T08:18:49.920Z,98151.15
2017-10-22T08:21:18.345Z,98152.33
2017-10-22T08:23:48.894Z,98153.88
2017-10-22T08:26:19.409Z,98145.63
2017-10-22T08:28:48.711Z,98150.81
2017-10-22T08:31:17.110Z,98138.92
2017-10-22T08:33:47.609Z,98148.03
2017-10-22T08:36:17.022Z,98151.05
2017-10-22T08:38:46.219Z,98144.36
2017-10-22T08:41:16.374Z,98143.95
2017-10-22T08:43:44.826Z,98141.44
2017-10-22T08:46:15.381Z,98137.40
2017-10-22T08:48:46.135Z,98139.37
2017-10-22T08:51:14.535Z,98147.82
2017-10-22T08:53:42.944Z,98147.99
2017-10-22T08:56:11.349Z,98149.51
2017-10-22T08:58:41.849Z,98145.88
2017-10-22T09:01:11.428Z,98145.47
2017-10-22T09:03:40.217Z,98148.80
2017-10-22T09:06:08.541Z,98147.53
2017-10-22T09:08:36.955Z,98145.69
2017-10-22T09:11:05.319Z,98152.27
2017-10-22T09:13:35.819Z,98152.46
2017-10-22T09:16:05.111Z,98151.48
2017-10-22T09:18:34.445Z,98138.23
2017-10-22T09:21:07.787Z,98139.78
2017-10-22T09:23:36.116Z,98149.20
2017-10-22T09:26:04.476Z,98148.49
2017-10-22T09:28:33.830Z,98144.74
2017-10-22T09:31:02.174Z,98150.56
2017-10-22T09:33:32.730Z,98136.92
2017-10-22T09:36:03.270Z,98140.77
2017-10-22T09:38:33.089Z,98137.08
2017-10-22T09:41:01.548Z,98142.80
2017-10-22T09:43:29.893Z,98146.47
2017-10-22T09:45:59.246Z,98144.66
2017-10-22T09:48:28.540Z,98142.88
2017-10-22T09:50:57.028Z,98147.23
2017-10-22T09:53:25.649Z,98150.80
2017-10-22T09:55:55.203Z,98143.80
2017-10-22T09:58:25.698Z,98150.05
2017-10-22T10:00:54.158Z,98151.26
2017-10-22T10:03:23.728Z,98152.83
2017-10-22T10:05:52.309Z,98149.41
2017-10-22T10:08:21.772Z,98157.05
2017-10-22T10:10:50.132Z,98149.70
2017-10-22T10:13:19.762Z,98155.11
2017-10-22T10:15:53.252Z,98159.24
2017-10-22T10:18:23.609Z,98151.84
2017-10-22T10:20:53.115Z,98158.72
2017-10-22T10:23:21.604Z,98154.15
2017-10-22T10:25:51.115Z,98157.95
2017-10-22T10:28:21.646Z,98154.84
2017-10-22T10:30:52.187Z,98159.39
2017-10-22T10:33:20.576Z,98161.11
2017-10-22T10:35:51.127Z,98160.47
2017-10-22T10:38:21.610Z,98159.95
2017-10-22T10:40:52.223Z,98151.14
2017-10-22T10:43:23.316Z,98149.23
2017-10-22T10:45:53.962Z,98148.66
2017-10-22T10:48:26.171Z,98149.68
2017-10-22T10:50:55.888Z,98149.39
2017-10-22T10:53:25.444Z,98148.97
2017-10-22T10:55:57.538Z,98149.13
2017-10-22T10:58:25.869Z,98145.67
2017-10-22T11:00:54.223Z,98145.59
2017-10-22T11:03:23.548Z,98153.94
2017-10-22T11:05:54.088Z,98154.12
2017-10-22T11:08:24.592Z,98146.33
2017-10-22T11:10:53.913Z,98153.16
2017-10-22T11:13:23.262Z,98153.02
2017-10-22T11:15:52.807Z,98159.73
2017-10-22T11:18:23.360Z,98161.12
2017-10-22T11:20:53.869Z,98155.92
2017-10-22T11:23:23.175Z,98152.86
2017-10-22T11:25:52.496Z,98156.53
2017-10-22T11:28:21.291Z,98160.89
2017-10-22T11:30:49.847Z,98147.56
2017-10-22T11:33:18.218Z,98151.80
2017-10-22T11:35:47.926Z,98158.73
2017-10-22T11:38:20.812Z,98152.28
2017-10-22T11:40:50.130Z,98152.73
2017-10-22T11:43:19.459Z,98156.17
2017-10-22T11:45:50.352Z,98158.19
2017-10-22T11:48:21.433Z,98150.16
2017-10-22T11:50:52.322Z,98150.22
2017-10-22T11:53:20.657Z,98156.84
2017-10-22T11:55:49.095Z,98148.58
2017-10-22T11:58:19.565Z,98153.72
2017-10-22T12:00:50.066Z,98149.39
2017-10-22T12:03:20.297Z,98146.61
2017-10-22T12:05:48.810Z,98148.33
2017-10-22T12:08:22.262Z,98137.02
2017-10-22T12:10:51.564Z,98138.77
2017-10-22T12:13:20.886Z,98136.39
2017-10-22T12:15:49.280Z,98132.19
2017-10-22T12:18:17.612Z,98136.61
2017-10-22T12:20:46.086Z,98122.40
2017-10-22T12:23:14.439Z,98131.44
2017-10-22T12:25:44.951Z,98127.89
2017-10-22T12:28:15.450Z,98135.80
2017-10-22T12:30:44.772Z,98134.67
2017-10-22T12:33:14.063Z,98138.63
2017-10-22T12:35:43.767Z,98135.34
2017-10-22T12:38:16.651Z,98137.46
2017-10-22T12:40:46.221Z,98142.34
2017-10-22T12:43:15.560Z,98144.44
2017-10-22T12:45:44.850Z,98142.92
2017-10-22T12:48:13.959Z,98141.93
2017-10-22T12:50:42.288Z,98143.48
2017-10-22T12:53:11.554Z,98143.80
2017-10-22T12:55:39.921Z,98147.57
2017-10-22T12:58:12.643Z,98135.83
2017-10-22T13:00:40.981Z,98134.78
2017-10-22T13:03:10.318Z,98137.06
2017-10-22T13:05:40.818Z,98143.20
2017-10-22T13:08:10.199Z,98142.04
2017-10-22T13:10:39.818Z,98139.69
2017-10-22T13:13:09.024Z,98143.48
2017-10-22T13:15:38.337Z,98143.06
2017-10-22T13:18:07.626Z,98145.62
2017-10-22T13:20:36.938Z,98147.08
2017-10-22T13:23:06.209Z,98150.89
2017-10-22T13:25:46.902Z,98144.09
2017-10-22T13:28:16.509Z,98151.68
2017-10-22T13:30:45.836Z,98152.91
2017-10-22T13:33:15.420Z,98155.43
2017-10-22T13:35:45.128Z,98154.91
2017-10-22T13:38:14.323Z,98153.86
2017-10-22T13:40:43.724Z,98153.40
2017-10-22T13:43:16.620Z,98154.80
2017-10-22T13:45:45.956Z,98151.74
2017-10-22T13:48:14.310Z,98155.75
2017-10-22T13:50:43.602Z,98154.33
2017-10-22T13:53:12.932Z,98150.63
2017-10-22T13:55:43.450Z,98157.37
2017-10-22T13:58:13.962Z,98163.48
2017-10-22T14:00:43.256Z,98161.19
2017-10-22T14:03:11.684Z,98159.82
2017-10-22T14:05:40.036Z,98160.20
2017-10-22T14:08:09.334Z,98162.35
2017-10-22T14:10:38.643Z,98161.83
2017-10-22T14:13:07.931Z,98161.48
2017-10-22T14:15:37.272Z,98161.34
2017-10-22T14:18:05.652Z,98165.34
2017-10-22T14:20:34.030Z,98163.25
2017-10-22T14:23:02.417Z,98164.36
2017-10-22T14:25:31.165Z,98171.66
2017-10-22T14:27:59.497Z,98167.20
2017-10-22T14:30:27.895Z,98170.17
2017-10-22T14:32:56.242Z,98175.34
2017-10-22T14:35:24.571Z,98169.64
2017-10-22T14:37:54.807Z,98173.23
2017-10-22T14:40:24.109Z,98167.47
2017-10-22T14:42:53.524Z,98167.47
2017-10-22T14:45:21.860Z,98166.66
2017-10-22T14:47:50.336Z,98166.02
2017-10-22T14:50:20.420Z,98164.44
2017-10-22T14:52:51.371Z,98172.33
2017-10-22T14:55:19.988Z,98178.95
2017-10-22T14:57:48.359Z,98175.39
2017-10-22T15:00:17.448Z,98174.90
2017-10-22T15:02:46.018Z,98175.58
2017-10-22T15:05:16.549Z,98182.09
2017-10-22T15:07:47.174Z,98179.61
2017-10-22T15:10:15.737Z,98178.51
2017-10-22T15:12:45.042Z,98175.08
2017-10-22T15:15:15.978Z,98180.00
2017-10-22T15:17:44.318Z,98180.57
2017-10-22T15:20:12.663Z,98181.93
2017-10-22T15:22:41.330Z,98189.66
2017-10-22T15:25:09.702Z,98186.11
2017-10-22T15:27:39.065Z,98188.03
2017-10-22T15:30:08.670Z,98194.06
2017-10-22T15:32:37.069Z,98193.50
2017-10-22T15:35:06.667Z,98199.12
2017-10-22T15:37:35.491Z,98199.80
2017-10-22T15:40:04.089Z,98193.74
2017-10-22T15:42:36.090Z,98198.17
2017-10-22T15:45:04.470Z,98201.70
2017-10-22T15:47:34.030Z,98203.77
2017-10-22T15:50:06.420Z,98205.89
2017-10-22T15:52:35.991Z,98201.96
2017-10-22T15:55:04.412Z,98213.56
2017-10-22T15:57:34.935Z,98204.55
2017-10-22T16:00:05.499Z,98214.30
2017-10-22T16:02:33.830Z,98215.17
2017-10-22T16:05:03.210Z,98215.69
2017-10-22T16:07:32.760Z,98211.06
2017-10-22T16:10:02.984Z,98230.29
2017-10-22T16:12:31.348Z,98230.93
2017-10-22T16:15:00.645Z,98234.84
2017-10-22T16:17:29.963Z,98230.98
2017-10-22T16:19:58.355Z,98230.09
2017-10-22T16:22:29.264Z,98236.60
2017-10-22T16:24:58.460Z,98234.56
2017-10-22T16:27:31.130Z,98237.73
2017-10-22T16:30:00.512Z,98249.45
2017-10-22T16:32:28.865Z,98246.45
2017-10-22T16:34:57.548Z,98251.02
2017-10-22T16:37:25.909Z,98254.75
2017-10-22T16:39:56.449Z,98246.69
2017-10-22T16:42:24.798Z,98247.40
2017-10-22T16:44:54.454Z,98256.02
2017-10-22T16:47:22.795Z,98255.45
2017-10-22T16:49:52.107Z,98258.75
2017-10-22T16:52:21.450Z,98264.48
2017-10-22T16:54:54.686Z,98263.66
2017-10-22T16:57:24.016Z,98268.39
2017-10-22T16:59:52.386Z,98273.48
2017-10-22T17:02:24.471Z,98275.27
2017-10-22T17:04:55.005Z,98277.18
2017-10-22T17:07:25.550Z,98277.13
2017-10-22T17:09:56.956Z,98286.63
2017-10-22T17:12:26.295Z,98292.96
2017-10-22T17:14:54.700Z,98297.13
2017-10-22T17:17:23.858Z,98303.89
2017-10-22T17:19:52.361Z,98308.67
2017-10-22T17:22:20.709Z,98305.05
2017-10-22T17:24:50.011Z,98303.97
2017-10-22T17:27:20.530Z,98303.64
2017-10-22T17:29:49.877Z,98305.27
2017-10-22T17:32:22.225Z,98310.69
2017-10-22T17:34:52.750Z,98311.69
2017-10-22T17:37:22.038Z,98311.81
2017-10-22T17:39:51.324Z,98318.05
2017-10-22T17:42:19.753Z,98321.64
2017-10-22T17:44:48.097Z,98325.70
2017-10-22T17:47:17.421Z,98325.13
2017-10-22T17:49:47.960Z,98324.23
2017-10-22T17:52:20.397Z,98328.28
2017-10-22T17:54:49.903Z,98330.54
2017-10-22T17:57:19.211Z,98334.10
2017-10-22T17:59:48.515Z,98333.84
2017-10-22T18:02:17.820Z,98345.65
2017-10-22T18:04:47.140Z,98338.02
2017-10-22T18:07:17.665Z,98342.62
2017-10-22T18:09:48.594Z,98346.47
2017-10-22T18:12:16.946Z,98354.23
2017-10-22T18:14:45.308Z,98357.42
2017-10-22T18:17:13.793Z,98348.86
2017-10-22T18:19:42.965Z,98351.70
2017-10-22T18:22:11.322Z,98352.59
2017-10-22T18:24:40.409Z,98353.89
2017-10-22T18:27:09.508Z,98354.14
2017-10-22T18:29:37.840Z,98357.80
2017-10-22T18:32:06.167Z,98360.06
2017-10-22T18:34:34.507Z,98358.86
2017-10-22T18:37:04.061Z,98357.90
2017-10-22T18:39:32.405Z,98347.37
2017-10-22T18:42:00.736Z,98357.57
2017-10-22T18:44:29.143Z,98357.33
2017-10-22T18:46:57.498Z,98363.18
2017-10-22T18:49:25.869Z,98358.72
2017-10-22T18:51:54.650Z,98356.28
2017-10-22T18:54:22.983Z,98355.70
2017-10-22T18:56:51.336Z,98352.00
2017-10-22T18:59:20.152Z,98353.07
2017-10-22T19:01:48.500Z,98351.52
2017-10-22T19:04:16.851Z,98361.94
2017-10-22T19:06:45.956Z,98359.00
2017-10-22T19:09:14.309Z,98361.23
2017-10-22T19:11:42.728Z,98361.33
2017-10-22T19:14:11.099Z,98360.58
2017-10-22T19:16:39.493Z,98353.93
2017-10-22T19:19:07.944Z,98357.74
2017-10-22T19:21:37.174Z,98361.89
2017-10-22T19:24:05.807Z,98360.98
2017-10-22T19:26:34.226Z,98356.30
2017-10-22T19:29:02.596Z,98358.80
2017-10-22T19:31:30.947Z,98364.01
2017-10-22T19:33:59.323Z,98366.73
2017-10-22T19:36:27.663Z,98370.25
2017-10-22T19:38:56.005Z,98370.61
2017-10-22T19:41:25.134Z,98365.72
2017-10-22T19:43:53.480Z,98369.09
2017-10-22T19:46:22.990Z,98375.61
2017-10-22T19:48:52.343Z,98376.21
2017-10-22T19:51:20.764Z,98380.28
2017-10-22T19:53:49.284Z,98376.91
2017-10-22T19:56:17.699Z,98388.50
2017-10-22T19:58:46.081Z,98394.49
2017-10-22T20:01:14.410Z,98391.86
2017-10-22T20:03:43.532Z,98388.94
2017-10-22T20:06:12.296Z,98399.95
2017-10-22T20:08:41.384Z,98404.58
2017-10-22T20:11:09.869Z,98404.16
2017-10-22T20:13:38.978Z,98403.11
2017-10-22T20:16:07.307Z,98403.19
2017-10-22T20:18:35.647Z,98404.16
2017-10-22T20:21:03.963Z,98409.49
2017-10-22T20:23:32.302Z,98407.58
2017-10-22T20:26:00.753Z,98411.15
2017-10-22T20:28:29.858Z,98413.77
2017-10-22T20:30:58.954Z,98412.62
2017-10-22T20:33:27.287Z,98419.53
2017-10-22T20:35:55.641Z,98418.98
2017-10-22T20:38:23.981Z,98424.91
2017-10-22T20:40:52.324Z,98423.30
2017-10-22T20:43:20.648Z,98420.09
2017-10-22T20:45:49.758Z,98418.23
2017-10-22T20:48:18.094Z,98424.97
2017-10-22T20:50:46.753Z,98423.73
2017-10-22T20:53:15.100Z,98432.72
2017-10-22T20:55:43.415Z,98435.09
2017-10-22T20:58:11.791Z,98433.59
2017-10-22T21:00:40.516Z,98424.88
2017-10-22T21:03:08.854Z,98433.11
2017-10-22T21:05:37.590Z,98429.48
2017-10-22T21:08:06.295Z,98434.47
2017-10-22T21:10:35.370Z,98439.23
2017-10-22T21:13:03.703Z,98445.52
2017-10-22T21:15:32.033Z,98439.70
2017-10-22T21:18:00.360Z,98446.62
2017-10-22T21:20:29.126Z,98447.73
2017-10-22T21:22:58.216Z,98446.61
2017-10-22T21:25:26.534Z,98446.47
2017-10-22T21:27:54.931Z,98447.43
2017-10-22T21:30:23.293Z,98449.74
2017-10-22T21:32:51.629Z,98444.34
2017-10-22T21:35:20.745Z,98452.78
2017-10-22T21:37:49.137Z,98453.06
2017-10-22T21:40:17.452Z,98454.02
2017-10-22T21:42:45.810Z,98453.37
2017-10-22T21:45:14.155Z,98454.45
2017-10-22T21:47:43.290Z,98454.15
2017-10-22T21:50:11.611Z,98460.33
2017-10-22T21:52:39.954Z,98459.88
2017-10-22T21:55:08.296Z,98458.84
2017-10-22T21:57:37.704Z,98459.34
2017-10-22T22:00:06.034Z,98462.54
2017-10-22T22:02:34.366Z,98465.36
2017-10-22T22:05:02.702Z,98470.58
2017-10-22T22:07:31.405Z,98473.27
2017-10-22T22:10:00.500Z,98472.28
2017-10-22T22:12:28.808Z,98470.25
2017-10-22T22:14:57.145Z,98470.67
2017-10-22T22:17:25.479Z,98466.20
2017-10-22T22:19:54.486Z,98467.59
2017-10-22T22:22:23.294Z,98473.42
2017-10-22T22:24:51.645Z,98473.12
2017-10-22T22:27:19.996Z,98474.09
2017-10-22T22:29:48.351Z,98472.64
2017-10-22T22:32:17.059Z,98474.92
2017-10-22T22:34:46.149Z,98471.07
2017-10-22T22:37:15.248Z,98476.14
2017-10-22T22:39:43.547Z,98473.61
2017-10-22T22:42:11.888Z,98476.44
2017-10-22T22:44:40.214Z,98472.86
2017-10-22T22:47:08.566Z,98470.51
2017-10-22T22:49:37.665Z,98471.97
2017-10-22T22:52:05.997Z,98472.59
2017-10-22T22:54:34.351Z,98480.83
2017-10-22T22:57:02.655Z,98482.89
2017-10-22T22:59:30.993Z,98480.95
2017-10-22T23:01:59.324Z,98480.43
2017-10-22T23:04:28.709Z,98477.32
2017-10-22T23:06:57.816Z,98476.34
2017-10-22T23:09:26.130Z,98473.88
2017-10-22T23:11:55.235Z,98477.78
2017-10-22T23:14:24.759Z,98476.27
2017-10-22T23:16:53.098Z,98475.31
2017-10-22T23:19:21.419Z,98476.14
2017-10-22T23:21:50.197Z,98471.27
2017-10-22T23:24:19.491Z,98471.43
2017-10-22T23:26:48.604Z,98476.09
2017-10-22T23:29:16.931Z,98478.84
2017-10-22T23:31:45.237Z,98483.09
2017-10-22T23:34:14.329Z,98488.31
2017-10-22T23:36:42.650Z,98480.34
2017-10-22T23:39:11.039Z,98477.14
2017-10-22T23:41:39.370Z,98485.14
2017-10-22T23:44:08.467Z,98480.90
2017-10-22T23:46:36.783Z,98476.57
2017-10-22T23:49:05.532Z,98475.19
2017-10-22T23:51:33.851Z,98475.75
2017-10-22T23:54:02.178Z,98475.33
2017-10-22T23:56:30.920Z,98472.39
2017-10-22T23:58:59.230Z,98479.03
